Time;durP1;ratioP1;P1;durP2;ratioP2;P2;SDS_P1;SDS_P2;PMS_P1;PMS_P2;Temp;Humidity;BMP_temperature;BMP_pressure;BME280_temperature;BME280_humidity;BME280_pressure;Samples;Min_cycle;Max_cycle;Signal;HPM_P1;HPM_P2
2022/01/11 00:00:14;;;;;;;17.10;10.90;;;4.30;99.90;;;5.23;100.00;-19904.94;5014190;28;20250;-68
2022/01/11 00:02:44;;;;;;;18.87;11.33;;;4.30;99.90;;;5.30;100.00;-19907.19;5013906;28;20684;-68
2022/01/11 00:05:21;;;;;;;14.43;9.97;;;4.40;99.90;;;5.17;100.00;-19902.72;5013771;28;20210;-68
2022/01/11 00:07:50;;;;;;;15.97;9.67;;;4.30;99.90;;;5.07;100.00;-19899.31;5014485;28;20192;-68
2022/01/11 00:10:27;;;;;;;17.23;10.83;;;4.30;99.90;;;5.15;100.00;-19902.03;4998444;28;20652;-68
2022/01/11 00:12:57;;;;;;;15.17;10.00;;;4.30;99.90;;;4.98;100.00;-19896.41;5003137;28;20709;-68
2022/01/11 00:15:25;;;;;;;13.33;9.43;;;4.20;99.90;;;4.79;100.00;-19889.91;5013157;28;20291;-68
2022/01/11 00:17:54;;;;;;;15.17;9.37;;;4.10;99.90;;;4.66;100.00;-19885.63;5013892;28;20261;-67
2022/01/11 00:20:22;;;;;;;16.50;10.07;;;4.10;99.90;;;4.75;100.00;-19888.53;5014025;28;20712;-68
2022/01/11 00:25:37;;;;;;;16.03;9.20;;;4.10;99.90;;;4.94;100.00;-19895.22;5014133;28;20286;-68
2022/01/11 00:28:08;;;;;;;13.90;8.93;;;4.10;99.90;;;5.14;100.00;-19901.88;5015838;28;20253;-68
2022/01/11 00:30:39;;;;;;;15.20;9.57;;;4.20;99.90;;;5.10;100.00;-19900.50;5015705;28;20313;-68
2022/01/11 00:33:13;;;;;;;18.40;10.20;;;4.20;99.90;;;5.01;100.00;-19897.44;4994136;28;20227;-69
2022/01/11 00:35:45;;;;;;;14.20;9.13;;;4.20;99.90;;;4.88;100.00;-19893.00;4994077;28;20232;-69
2022/01/11 00:38:17;;;;;;;12.43;8.27;;;4.10;99.90;;;4.84;100.00;-19891.63;4993771;28;20214;-68
2022/01/11 00:40:49;;;;;;;16.93;9.37;;;4.10;99.90;;;4.97;100.00;-19896.06;4994232;28;20519;-68
2022/01/11 00:43:18;;;;;;;15.27;9.27;;;4.10;99.90;;;4.83;100.00;-19891.28;4993805;28;20321;-70
2022/01/11 00:45:47;;;;;;;13.57;8.90;;;4.10;99.90;;;4.77;100.00;-19889.41;4993869;28;20259;-67
2022/01/11 00:48:16;;;;;;;17.13;9.40;;;4.00;99.90;;;4.68;100.00;-19886.31;4993408;28;20238;-68
2022/01/11 00:50:46;;;;;;;15.57;9.17;;;4.00;99.90;;;4.54;100.00;-19881.38;4993927;28;20656;-69
2022/01/11 00:53:16;;;;;;;14.30;9.00;;;3.90;99.90;;;4.50;100.00;-19880.16;4993802;28;20651;-68
2022/01/11 00:55:44;;;;;;;15.27;9.23;;;3.90;99.90;;;4.46;100.00;-19878.63;4993901;28;20239;-68
2022/01/11 00:58:15;;;;;;;14.77;9.57;;;3.80;99.90;;;4.48;100.00;-19879.31;4993504;28;20917;-68
2022/01/11 01:00:44;;;;;;;14.60;9.17;;;3.80;99.90;;;4.41;100.00;-19877.09;4995231;28;20309;-68
2022/01/11 01:03:13;;;;;;;14.80;9.67;;;3.70;99.90;;;4.52;100.00;-19880.69;5013015;28;20226;-68
2022/01/11 01:05:42;;;;;;;16.03;9.40;;;3.70;99.90;;;4.51;100.00;-19880.50;5012711;28;20305;-68
2022/01/11 01:08:10;;;;;;;16.33;9.57;;;3.70;99.90;;;4.58;100.00;-19882.91;5013018;28;20251;-68
2022/01/11 01:10:45;;;;;;;16.73;9.77;;;3.80;99.90;;;4.51;100.00;-19880.34;5013606;28;20229;-62
2022/01/11 01:13:18;;;;;;;14.57;9.63;;;3.80;99.90;;;4.67;100.00;-19885.97;5012747;28;20265;-62
2022/01/11 01:15:48;;;;;;;13.93;8.80;;;3.80;99.90;;;4.59;100.00;-19883.25;5013011;28;20320;-62
2022/01/11 01:18:20;;;;;;;13.77;8.23;;;3.80;99.90;;;4.62;100.00;-19884.28;5012615;28;20746;-63
2022/01/11 01:20:50;;;;;;;15.40;8.80;;;3.80;99.90;;;4.57;100.00;-19882.38;5012723;28;20800;-61
2022/01/11 01:23:19;;;;;;;16.13;8.80;;;3.80;99.90;;;4.60;100.00;-19883.59;5012991;28;20297;-62
2022/01/11 01:25:49;;;;;;;14.83;9.00;;;3.80;99.90;;;4.47;100.00;-19879.16;5013140;28;20297;-62
2022/01/11 01:28:19;;;;;;;15.80;9.23;;;3.80;99.90;;;4.38;100.00;-19876.06;5012582;28;20320;-62
2022/01/11 01:30:49;;;;;;;14.83;9.33;;;3.70;99.90;;;4.35;100.00;-19874.88;5012557;28;20321;-62
2022/01/11 01:33:18;;;;;;;16.90;9.67;;;3.70;99.90;;;4.39;100.00;-19876.41;5012247;28;20773;-62
2022/01/11 01:35:51;;;;;;;17.77;10.37;;;3.70;99.90;;;4.26;100.00;-19871.78;5012655;28;20301;-61
2022/01/11 01:38:22;;;;;;;17.27;9.50;;;3.60;99.90;;;4.30;100.00;-19873.34;5012549;28;20344;-64
2022/01/11 01:40:56;;;;;;;17.23;10.40;;;3.60;99.90;;;4.45;100.00;-19878.47;5013149;28;20251;-61
2022/01/11 01:43:26;;;;;;;16.10;10.17;;;3.70;99.90;;;4.38;100.00;-19876.06;5012732;28;20201;-63
2022/01/11 01:45:58;;;;;;;16.80;9.73;;;3.70;99.90;;;4.32;100.00;-19874.03;5012475;28;20237;-63
2022/01/11 01:48:28;;;;;;;18.13;9.93;;;3.60;99.90;;;4.35;100.00;-19874.88;5012122;28;20231;-62
2022/01/11 01:50:56;;;;;;;20.13;11.33;;;3.70;99.90;;;4.67;100.00;-19885.81;5011930;28;20222;-62
2022/01/11 01:53:26;;;;;;;17.77;9.90;;;3.70;99.90;;;4.67;100.00;-19885.97;5011957;28;20233;-63
2022/01/11 01:55:55;;;;;;;18.93;10.67;;;3.80;99.90;;;4.87;100.00;-19892.66;5012389;28;20322;-62
2022/01/11 01:58:25;;;;;;;19.43;11.13;;;3.90;99.90;;;4.90;100.00;-19893.69;5011515;28;20261;-62
2022/01/11 02:01:02;;;;;;;19.40;11.00;;;3.90;99.90;;;4.82;100.00;-19891.09;5011835;28;20221;-63
2022/01/11 02:03:37;;;;;;;17.07;10.40;;;3.90;99.90;;;4.96;100.00;-19895.91;5011136;28;20225;-62
2022/01/11 02:06:08;;;;;;;17.43;9.87;;;4.00;99.90;;;4.95;100.00;-19895.38;5010877;28;20217;-61
2022/01/11 02:08:37;;;;;;;18.03;10.10;;;4.00;99.90;;;4.85;100.00;-19892.13;5011486;28;20301;-62
2022/01/11 02:11:07;;;;;;;19.40;10.90;;;4.00;99.90;;;4.92;100.00;-19894.53;5011931;28;20250;-63
2022/01/11 02:13:37;;;;;;;20.67;11.30;;;4.00;99.90;;;4.92;100.00;-19894.34;5012168;28;20317;-62
2022/01/11 02:16:06;;;;;;;17.10;10.63;;;4.00;99.90;;;4.75;100.00;-19888.53;5011923;28;20307;-63
2022/01/11 02:18:34;;;;;;;20.57;11.03;;;4.00;99.90;;;4.76;100.00;-19888.88;5011792;28;20241;-63
2022/01/11 02:21:04;;;;;;;23.03;11.47;;;4.00;99.90;;;5.03;100.00;-19897.94;5011874;28;20233;-63
2022/01/11 02:23:33;;;;;;;20.67;10.87;;;4.00;99.90;;;5.05;100.00;-19898.81;5011948;28;20410;-62
2022/01/11 02:26:01;;;;;;;23.97;11.40;;;4.10;99.90;;;5.05;100.00;-19898.63;5011949;28;20210;-63
2022/01/11 02:28:31;;;;;;;19.67;10.83;;;4.10;99.90;;;4.73;100.00;-19888.03;5012442;28;20285;-63
2022/01/11 02:31:07;;;;;;;22.57;11.53;;;4.00;99.90;;;4.71;100.00;-19887.34;5011788;28;20307;-61
2022/01/11 02:33:41;;;;;;;23.00;11.80;;;4.00;99.90;;;4.87;100.00;-19892.66;5011361;28;20316;-62
2022/01/11 02:36:14;;;;;;;26.10;11.70;;;4.00;99.90;;;5.09;100.00;-19900.00;5011778;28;20316;-62
2022/01/11 02:38:42;;;;;;;22.53;11.90;;;4.10;99.90;;;4.89;100.00;-19893.50;5011787;28;20314;-63
2022/01/11 02:41:10;;;;;;;22.67;11.73;;;4.00;99.90;;;5.05;100.00;-19898.63;5011790;28;20301;-62
2022/01/11 02:43:43;;;;;;;22.37;11.27;;;4.10;99.90;;;4.85;100.00;-19892.13;5012101;28;20709;-62
2022/01/11 02:46:12;;;;;;;22.87;11.00;;;4.00;99.90;;;4.75;100.00;-19888.72;5011440;28;20234;-62
2022/01/11 02:48:40;;;;;;;21.47;11.63;;;4.00;99.90;;;4.97;100.00;-19896.22;5011393;28;20592;-63
2022/01/11 02:51:10;;;;;;;23.47;12.40;;;4.00;99.90;;;4.66;100.00;-19885.47;5011857;28;20235;-62
2022/01/11 02:53:40;;;;;;;20.77;12.03;;;3.90;99.90;;;4.69;100.00;-19886.50;5011269;28;20264;-62
2022/01/11 02:56:09;;;;;;;23.27;12.27;;;3.90;99.90;;;4.92;100.00;-19894.53;5011349;28;20313;-63
2022/01/11 02:58:37;;;;;;;22.10;11.60;;;4.00;99.90;;;4.83;100.00;-19891.44;5012213;28;20237;-62
2022/01/11 03:01:07;;;;;;;21.37;10.90;;;4.00;99.90;;;4.62;100.00;-19884.28;5011493;28;20221;-62
2022/01/11 03:03:37;;;;;;;22.47;12.30;;;3.90;99.90;;;4.67;100.00;-19885.81;5014345;28;20237;-62
2022/01/11 03:06:07;;;;;;;24.17;12.57;;;3.90;99.90;;;4.54;100.00;-19881.38;4999998;28;20252;-63
2022/01/11 03:08:42;;;;;;;22.73;11.83;;;3.90;99.90;;;4.62;100.00;-19884.28;4996627;28;20226;-63
2022/01/11 03:11:11;;;;;;;23.30;11.97;;;3.90;99.90;;;4.70;100.00;-19887.00;5015381;28;20186;-63
2022/01/11 03:13:41;;;;;;;24.37;12.80;;;3.90;99.90;;;4.63;100.00;-19884.44;5015994;28;20344;-62
2022/01/11 03:16:10;;;;;;;24.53;12.30;;;3.90;99.90;;;4.93;100.00;-19894.88;5015245;28;20284;-62
2022/01/11 03:18:38;;;;;;;22.23;12.67;;;4.00;99.90;;;4.85;100.00;-19891.97;5015123;28;20232;-62
2022/01/11 03:21:07;;;;;;;28.97;13.60;;;4.00;99.90;;;5.31;100.00;-19907.53;5015111;28;20241;-62
2022/01/11 03:23:36;;;;;;;22.67;12.13;;;4.10;99.90;;;4.90;100.00;-19893.69;5015363;28;20230;-63
2022/01/11 03:26:04;;;;;;;21.47;11.60;;;4.10;99.90;;;5.03;100.00;-19897.94;5014955;28;20209;-63
2022/01/11 03:28:33;;;;;;;24.77;12.63;;;4.10;99.90;;;4.96;100.00;-19895.91;5015786;28;20655;-63
2022/01/11 03:31:01;;;;;;;25.03;12.37;;;4.10;99.90;;;4.94;100.00;-19895.22;5015164;28;20309;-61
2022/01/11 03:33:30;;;;;;;25.17;12.67;;;4.10;99.90;;;4.78;100.00;-19889.56;5014793;28;20233;-63
2022/01/11 03:35:58;;;;;;;24.07;11.90;;;4.00;99.90;;;4.70;100.00;-19887.00;5014796;28;20253;-63
2022/01/11 03:38:26;;;;;;;32.47;16.53;;;4.00;99.90;;;4.80;100.00;-19890.25;5015178;28;20386;-63
2022/01/11 03:40:55;;;;;;;40.57;19.17;;;4.00;99.90;;;4.79;100.00;-19889.91;5015400;28;20206;-63
2022/01/11 03:43:24;;;;;;;42.67;21.57;;;4.00;99.90;;;4.85;100.00;-19892.13;5014809;28;20312;-61
2022/01/11 03:45:53;;;;;;;59.47;23.63;;;3.90;99.90;;;4.73;100.00;-19888.03;5014686;28;20295;-62
2022/01/11 03:48:22;;;;;;;54.93;23.80;;;3.90;99.90;;;4.65;100.00;-19885.28;5014720;28;20261;-62
2022/01/11 03:50:54;;;;;;;49.80;25.13;;;3.80;99.90;;;4.45;100.00;-19878.47;5014407;28;20257;-64
2022/01/11 03:53:28;;;;;;;49.37;24.70;;;3.70;99.90;;;4.42;100.00;-19877.44;5014680;28;20317;-63
2022/01/11 03:56:11;;;;;;;55.00;26.47;;;3.70;99.90;;;4.72;100.00;-19887.50;5014211;28;20275;-62
2022/01/11 03:58:39;;;;;;;51.40;25.57;;;3.70;99.90;;;4.46;100.00;-19878.63;5014087;28;20301;-63
2022/01/11 04:01:07;;;;;;;54.07;24.87;;;3.70;99.90;;;4.52;100.00;-19880.69;5013482;28;20234;-62
2022/01/11 04:03:37;;;;;;;54.10;26.53;;;3.70;99.90;;;4.46;100.00;-19878.81;5014222;28;20229;-62
2022/01/11 04:06:05;;;;;;;52.63;24.40;;;3.70;99.90;;;4.58;100.00;-19882.75;4999014;28;20305;-62
2022/01/11 04:08:34;;;;;;;58.93;25.73;;;3.70;99.90;;;4.61;100.00;-19883.75;4995592;28;20258;-62
2022/01/11 04:11:05;;;;;;;65.63;26.10;;;3.80;99.90;;;4.60;100.00;-19883.59;5014407;28;20228;-63
2022/01/11 04:13:33;;;;;;;60.70;25.87;;;3.70;99.90;;;4.68;100.00;-19886.31;5014253;28;20309;-62
2022/01/11 04:16:01;;;;;;;56.17;25.90;;;3.70;99.90;;;4.53;100.00;-19881.03;5013706;28;20251;-62
2022/01/11 04:18:30;;;;;;;83.40;28.80;;;3.70;99.90;;;4.44;100.00;-19877.94;5013869;28;20741;-63
2022/01/11 04:20:58;;;;;;;56.60;25.87;;;3.60;99.90;;;4.50;100.00;-19880.16;5013708;28;20232;-63
2022/01/11 04:23:27;;;;;;;68.17;26.33;;;3.60;99.90;;;4.48;100.00;-19879.47;5013916;28;20250;-62
2022/01/11 04:25:55;;;;;;;61.13;28.07;;;3.60;99.90;;;4.35;100.00;-19875.03;5014103;28;20245;-63
2022/01/11 04:28:25;;;;;;;55.07;25.70;;;3.60;99.90;;;4.30;100.00;-19873.16;5013473;28;20250;-62
2022/01/11 04:30:53;;;;;;;62.33;27.50;;;3.60;99.90;;;4.32;100.00;-19873.84;5013146;28;20230;-62
2022/01/11 04:33:23;;;;;;;63.47;27.97;;;3.50;99.90;;;4.31;100.00;-19873.50;5013252;28;20229;-62
2022/01/11 04:35:51;;;;;;;56.60;27.20;;;3.50;99.90;;;4.35;100.00;-19875.03;5013415;28;20326;-62
2022/01/11 04:38:21;;;;;;;52.00;26.37;;;3.50;99.90;;;4.09;100.00;-19866.16;5013510;28;20233;-63
2022/01/11 04:40:50;;;;;;;62.07;28.03;;;3.40;99.90;;;4.24;100.00;-19871.13;5013590;28;20603;-62
2022/01/11 04:43:19;;;;;;;59.23;27.37;;;3.40;99.90;;;4.15;100.00;-19868.22;5013097;28;20249;-62
2022/01/11 04:45:48;;;;;;;70.80;30.60;;;3.40;99.90;;;4.28;100.00;-19872.47;5012933;28;20230;-61
2022/01/11 04:48:18;;;;;;;70.37;30.20;;;3.40;99.90;;;4.26;100.00;-19871.78;5013031;28;20319;-62
2022/01/11 04:50:47;;;;;;;60.87;29.97;;;3.40;99.90;;;4.22;100.00;-19870.59;5013310;28;20690;-63
2022/01/11 04:53:16;;;;;;;65.80;28.47;;;3.40;99.90;;;4.26;100.00;-19871.78;5013558;28;20264;-61
2022/01/11 04:55:44;;;;;;;54.37;25.67;;;3.40;99.90;;;4.00;100.00;-19863.06;5013550;28;20284;-62
2022/01/11 04:58:12;;;;;;;60.03;26.67;;;3.30;99.90;;;3.95;100.00;-19861.19;5013310;28;20265;-62
2022/01/11 05:00:40;;;;;;;63.50;27.20;;;3.30;99.90;;;3.98;100.00;-19862.41;5013253;28;20276;-63
2022/01/11 05:03:09;;;;;;;58.03;25.90;;;3.20;99.90;;;3.84;100.00;-19857.59;5013222;28;20254;-62
2022/01/11 05:05:38;;;;;;;62.20;27.23;;;3.20;99.90;;;3.93;100.00;-19860.50;5013232;28;20569;-62
2022/01/11 05:08:06;;;;;;;49.13;23.37;;;3.20;99.90;;;4.12;100.00;-19867.00;5013434;28;20262;-63
2022/01/11 05:10:34;;;;;;;51.20;24.10;;;3.30;99.90;;;4.21;100.00;-19870.25;5013747;28;20233;-62
2022/01/11 05:13:02;;;;;;;48.33;23.13;;;3.20;99.90;;;4.05;100.00;-19864.78;5012534;28;20242;-62
2022/01/11 05:15:30;;;;;;;54.53;23.30;;;3.20;99.90;;;4.19;100.00;-19869.56;5012935;28;20240;-62
2022/01/11 05:17:59;;;;;;;48.70;24.20;;;3.20;99.90;;;4.02;100.00;-19863.59;5012365;28;20234;-62
2022/01/11 05:20:29;;;;;;;46.27;24.00;;;3.30;99.90;;;3.96;100.00;-19861.72;5013011;28;20308;-62
2022/01/11 05:22:57;;;;;;;53.73;24.33;;;3.20;99.90;;;3.80;100.00;-19856.25;5013358;28;20217;-62
2022/01/11 05:25:25;;;;;;;44.00;21.70;;;3.20;99.90;;;3.99;100.00;-19862.56;5012123;28;20214;-62
2022/01/11 05:27:53;;;;;;;45.33;22.83;;;3.20;99.90;;;3.94;100.00;-19860.84;5012671;28;20226;-61
2022/01/11 05:30:23;;;;;;;46.47;23.77;;;3.10;99.90;;;4.06;100.00;-19865.13;5012772;28;20264;-62
2022/01/11 05:32:51;;;;;;;44.80;23.00;;;3.10;99.90;;;4.02;100.00;-19863.75;5012568;28;20218;-61
2022/01/11 05:35:22;;;;;;;48.43;22.87;;;3.10;99.90;;;4.01;100.00;-19863.41;5012742;28;20434;-62
2022/01/11 05:37:53;;;;;;;43.87;22.20;;;3.10;99.90;;;3.68;100.00;-19852.13;5013281;28;20269;-63
2022/01/11 05:40:22;;;;;;;45.40;22.33;;;3.00;99.90;;;3.60;100.00;-19849.56;5012157;28;20236;-61
2022/01/11 05:42:51;;;;;;;48.93;23.27;;;3.00;99.90;;;3.54;100.00;-19847.34;5011945;28;20615;-61
2022/01/11 05:45:20;;;;;;;50.57;24.17;;;2.90;99.90;;;3.70;100.00;-19852.81;5012374;28;20308;-62
2022/01/11 05:47:52;;;;;;;49.20;23.63;;;2.90;99.90;;;3.46;100.00;-19844.63;5012047;28;20312;-63
2022/01/11 05:50:24;;;;;;;47.10;22.47;;;2.80;99.90;;;3.38;100.00;-19841.88;5012205;28;20305;-62
2022/01/11 05:52:53;;;;;;;45.13;23.47;;;2.70;99.90;;;3.34;100.00;-19840.50;5012722;28;20269;-63
2022/01/11 05:55:22;;;;;;;52.63;24.17;;;2.60;99.90;;;3.25;100.00;-19837.59;5012035;28;20238;-62
2022/01/11 05:57:50;;;;;;;50.33;24.67;;;2.60;99.90;;;3.22;100.00;-19836.41;5011985;28;20243;-62
2022/01/11 06:00:21;;;;;;;59.70;27.60;;;2.50;99.90;;;3.48;100.00;-19845.31;5012145;28;20667;-62
2022/01/11 06:02:54;;;;;;;55.60;28.43;;;2.60;99.90;;;3.38;100.00;-19841.88;5011898;28;20648;-62
2022/01/11 06:05:23;;;;;;;65.00;29.30;;;2.60;99.90;;;3.44;100.00;-19843.94;5002455;28;20227;-63
2022/01/11 06:07:53;;;;;;;67.63;32.53;;;2.60;99.90;;;3.35;100.00;-19840.84;4992967;28;20243;-63
2022/01/11 06:10:21;;;;;;;69.47;32.80;;;2.60;99.90;;;3.47;100.00;-19844.97;5007660;28;20320;-61
2022/01/11 06:12:49;;;;;;;66.07;33.00;;;2.60;99.90;;;3.38;100.00;-19842.06;5011778;28;20321;-62
2022/01/11 06:15:17;;;;;;;67.33;32.47;;;2.60;99.90;;;3.24;100.00;-19837.09;5011903;28;20233;-63
2022/01/11 06:17:45;;;;;;;64.27;33.00;;;2.50;99.90;;;3.20;100.00;-19835.91;5011851;28;20227;-62
2022/01/11 06:20:13;;;;;;;69.77;33.63;;;2.50;99.90;;;3.26;100.00;-19837.78;5011892;28;20296;-62
2022/01/11 06:22:43;;;;;;;78.27;36.33;;;2.50;99.90;;;3.28;100.00;-19838.47;5012150;28;20722;-62
2022/01/11 06:25:13;;;;;;;78.00;36.77;;;2.50;99.90;;;3.32;100.00;-19839.81;5011646;28;20838;-63
2022/01/11 06:27:42;;;;;;;70.73;35.63;;;2.50;99.90;;;3.45;100.00;-19844.28;5011374;28;20785;-61
2022/01/11 06:30:16;;;;;;;69.03;34.10;;;2.60;99.90;;;3.36;100.00;-19841.38;5011496;28;20317;-62
2022/01/11 06:32:46;;;;;;;66.07;33.83;;;2.60;99.90;;;3.24;100.00;-19837.09;5011367;28;20241;-62
2022/01/11 06:35:16;;;;;;;67.20;33.40;;;2.50;99.90;;;3.00;100.00;-19829.06;5011390;28;20720;-63
2022/01/11 06:37:46;;;;;;;69.27;34.60;;;2.40;99.90;;;3.14;100.00;-19833.69;5011812;28;20187;-62
2022/01/11 06:40:19;;;;;;;73.57;35.73;;;2.40;99.90;;;2.97;100.00;-19827.88;5010915;28;20764;-62
2022/01/11 06:42:52;;;;;;;67.77;34.80;;;2.30;99.90;;;3.17;100.00;-19834.69;5011083;28;20225;-61
2022/01/11 06:45:22;;;;;;;65.50;31.83;;;2.30;99.90;;;3.18;100.00;-19835.03;5011456;28;20282;-62
2022/01/11 06:47:51;;;;;;;73.63;32.87;;;2.30;99.90;;;2.99;100.00;-19828.72;5011225;28;20306;-62
2022/01/11 06:50:20;;;;;;;71.60;33.43;;;2.20;99.90;;;2.90;100.00;-19825.47;5011341;28;20699;-62
2022/01/11 06:52:48;;;;;;;70.80;34.23;;;2.20;99.90;;;2.88;100.00;-19824.78;5011637;28;20550;-62
2022/01/11 06:55:19;;;;;;;75.30;33.83;;;2.10;99.90;;;3.14;100.00;-19833.84;5010832;28;20311;-62
2022/01/11 06:57:47;;;;;;;73.53;34.90;;;2.20;99.90;;;3.03;100.00;-19829.91;5011012;28;20479;-62
2022/01/11 07:00:17;;;;;;;63.63;32.17;;;2.20;99.90;;;2.87;100.00;-19824.44;5011167;28;20305;-62
2022/01/11 07:02:49;;;;;;;64.13;31.53;;;2.10;99.90;;;2.74;100.00;-19820.00;5010902;28;20219;-62
2022/01/11 07:05:18;;;;;;;64.57;31.80;;;2.00;99.90;;;2.65;100.00;-19816.91;5010202;28;20201;-63
2022/01/11 07:07:47;;;;;;;63.63;31.30;;;1.90;99.90;;;2.92;100.00;-19826.31;5011649;28;20230;-62
2022/01/11 07:10:16;;;;;;;62.97;31.20;;;2.00;99.90;;;2.70;100.00;-19818.81;5010910;28;20306;-63
2022/01/11 07:12:45;;;;;;;65.33;32.07;;;2.00;99.90;;;2.82;100.00;-19822.91;5011454;28;20262;-61
2022/01/11 07:15:13;;;;;;;62.57;31.13;;;2.00;99.90;;;2.80;100.00;-19822.22;5011187;28;20682;-61
2022/01/11 07:17:42;;;;;;;65.77;32.10;;;2.00;99.90;;;2.73;100.00;-19819.81;5011389;28;20306;-61
2022/01/11 07:20:11;;;;;;;59.73;29.07;;;1.90;99.90;;;2.73;100.00;-19819.66;5011240;28;20269;-62
2022/01/11 07:22:39;;;;;;;60.93;29.03;;;1.90;99.90;;;2.60;100.00;-19815.22;5012143;28;20214;-62
2022/01/11 07:25:08;;;;;;;59.33;29.63;;;1.80;99.90;;;2.44;100.00;-19810.09;5011249;28;20871;-62
2022/01/11 07:27:38;;;;;;;61.20;31.23;;;1.80;99.90;;;2.85;100.00;-19823.75;5011467;28;20626;-62
2022/01/11 07:30:09;;;;;;;63.93;30.80;;;1.90;99.90;;;2.66;100.00;-19817.25;5011557;28;20643;-62
2022/01/11 07:32:37;;;;;;;64.93;31.07;;;1.90;99.90;;;2.47;100.00;-19810.94;5011742;28;20226;-62
2022/01/11 07:35:07;;;;;;;60.97;31.87;;;1.80;99.90;;;2.71;100.00;-19818.97;5010666;28;20234;-62
2022/01/11 07:37:35;;;;;;;61.97;31.73;;;1.80;99.90;;;2.79;100.00;-19821.88;5011871;28;20241;-62
2022/01/11 07:40:04;;;;;;;61.63;29.23;;;1.80;99.90;;;2.46;100.00;-19810.78;5011085;28;20302;-62
2022/01/11 07:42:32;;;;;;;62.77;30.53;;;1.80;99.90;;;2.39;100.00;-19808.38;5011076;28;20254;-63
2022/01/11 07:45:02;;;;;;;57.63;30.13;;;1.70;99.90;;;2.43;100.00;-19809.75;5011138;28;20783;-62
2022/01/11 07:47:30;;;;;;;56.80;29.73;;;1.70;99.90;;;2.62;100.00;-19815.91;5011273;28;20224;-62
2022/01/11 07:49:59;;;;;;;58.43;29.83;;;1.70;99.90;;;2.56;100.00;-19814.00;5014936;28;20237;-61
2022/01/11 07:52:27;;;;;;;65.43;32.47;;;1.70;99.90;;;2.50;100.00;-19811.97;5014238;28;20261;-62
2022/01/11 07:54:57;;;;;;;62.23;31.43;;;1.70;99.90;;;2.48;100.00;-19811.28;5013770;28;20235;-61
2022/01/11 07:57:25;;;;;;;60.67;33.33;;;1.60;99.90;;;2.52;100.00;-19812.47;5013704;28;20219;-62
2022/01/11 07:59:53;;;;;;;64.77;33.07;;;1.70;99.90;;;2.50;100.00;-19812.13;5014671;28;20605;-64
2022/01/11 08:02:24;;;;;;;62.50;32.60;;;1.70;99.90;;;2.49;100.00;-19811.78;5014301;28;20230;-64
2022/01/11 08:04:53;;;;;;;65.73;33.77;;;1.70;99.90;;;2.37;100.00;-19807.53;5009122;28;20188;-65
2022/01/11 08:07:22;;;;;;;67.83;33.63;;;1.70;99.90;;;2.46;100.00;-19810.78;4994657;28;20231;-65
2022/01/11 08:09:50;;;;;;;65.30;33.33;;;1.60;99.90;;;2.66;100.00;-19817.25;5005889;28;20240;-64
2022/01/11 08:12:18;;;;;;;68.17;34.60;;;1.70;99.90;;;2.83;100.00;-19823.06;5014386;28;20262;-65
2022/01/11 08:14:48;;;;;;;66.67;33.67;;;1.80;99.90;;;2.64;100.00;-19816.59;5014270;28;20306;-65
2022/01/11 08:17:16;;;;;;;66.03;34.13;;;1.70;99.90;;;2.74;100.00;-19820.16;5014193;28;20685;-66
2022/01/11 08:19:47;;;;;;;68.97;33.93;;;1.80;99.90;;;2.62;100.00;-19815.91;5014860;28;20209;-64
2022/01/11 08:22:15;;;;;;;62.70;32.00;;;1.80;99.90;;;2.70;100.00;-19818.81;5013687;28;20281;-64
2022/01/11 08:24:44;;;;;;;60.80;31.33;;;1.80;99.90;;;2.80;100.00;-19822.22;5013807;28;20780;-65
2022/01/11 08:27:14;;;;;;;54.60;27.83;;;1.80;99.90;;;2.72;100.00;-19819.31;5014107;28;20229;-65
2022/01/11 08:29:43;;;;;;;61.13;30.87;;;1.80;99.90;;;2.63;100.00;-19816.25;5013462;28;20226;-65
2022/01/11 08:32:11;;;;;;;53.67;29.00;;;1.80;99.90;;;2.57;100.00;-19814.38;5013222;28;20349;-64
2022/01/11 08:34:39;;;;;;;56.13;29.13;;;1.80;99.90;;;2.65;100.00;-19817.09;5013777;28;20198;-64
2022/01/11 08:37:10;;;;;;;54.50;30.27;;;1.80;99.90;;;2.61;100.00;-19815.72;5013121;28;20230;-64
2022/01/11 08:39:38;;;;;;;61.40;31.03;;;1.80;99.90;;;2.72;100.00;-19819.31;5013117;28;20575;-64
2022/01/11 08:42:08;;;;;;;52.97;28.77;;;1.90;99.90;;;2.75;100.00;-19820.34;5013186;28;20254;-64
2022/01/11 08:44:36;;;;;;;59.63;30.17;;;1.90;99.90;;;2.74;100.00;-19820.00;5013309;28;20288;-65
2022/01/11 08:47:04;;;;;;;56.67;30.27;;;1.90;99.90;;;2.85;100.00;-19823.75;5013120;28;20230;-65
2022/01/11 08:49:32;;;;;;;60.87;29.80;;;1.90;99.90;;;2.74;100.00;-19820.00;5013814;28;20287;-64
2022/01/11 08:52:00;;;;;;;61.40;31.93;;;1.90;99.90;;;2.75;100.00;-19820.50;5013149;28;20234;-64
2022/01/11 08:54:30;;;;;;;58.13;29.57;;;1.90;99.90;;;2.70;100.00;-19818.81;5012715;28;20338;-65
2022/01/11 08:56:58;;;;;;;53.70;28.33;;;1.90;99.90;;;2.76;100.00;-19820.69;5013178;28;20585;-64
2022/01/11 08:59:27;;;;;;;54.77;29.70;;;1.90;99.90;;;2.79;100.00;-19821.72;5012823;28;20228;-64
2022/01/11 09:02:04;;;;;;;56.93;29.97;;;1.90;99.90;;;2.83;100.00;-19823.06;5012751;28;20297;-65
2022/01/11 09:04:32;;;;;;;56.07;30.97;;;1.90;99.90;;;2.75;100.00;-19820.50;5010899;28;20327;-64
2022/01/11 09:07:00;;;;;;;56.33;30.67;;;1.90;99.90;;;2.89;100.00;-19825.31;4993265;28;20232;-65
2022/01/11 09:09:32;;;;;;;54.47;29.97;;;1.90;99.90;;;2.86;100.00;-19824.09;4993611;28;20330;-64
2022/01/11 09:12:03;;;;;;;57.97;31.20;;;2.00;99.90;;;2.85;100.00;-19823.94;4993400;28;20786;-64
2022/01/11 09:14:33;;;;;;;54.17;29.73;;;2.00;99.90;;;2.98;100.00;-19828.38;4993687;28;20639;-64
2022/01/11 09:17:02;;;;;;;56.40;30.43;;;2.00;99.90;;;3.06;100.00;-19831.09;4992898;28;20599;-63
2022/01/11 09:19:32;;;;;;;59.30;31.17;;;2.10;99.90;;;2.95;100.00;-19827.34;4993400;28;20747;-63
2022/01/11 09:22:01;;;;;;;61.43;30.57;;;2.00;99.90;;;3.00;100.00;-19829.06;4992919;28;20314;-65
2022/01/11 09:24:37;;;;;;;53.20;28.73;;;2.10;99.90;;;2.86;100.00;-19824.09;4993293;28;20240;-64
2022/01/11 09:27:06;;;;;;;56.97;30.40;;;2.10;99.90;;;3.00;100.00;-19829.06;4995073;28;20264;-64
2022/01/11 09:29:37;;;;;;;52.50;28.73;;;2.10;99.90;;;3.25;100.00;-19837.44;5012440;28;20230;-64
2022/01/11 09:32:09;;;;;;;50.80;28.27;;;2.20;99.90;;;3.34;100.00;-19840.50;5012654;28;20561;-65
2022/01/11 09:34:40;;;;;;;51.10;27.47;;;2.30;99.90;;;3.48;100.00;-19845.31;5013327;28;20210;-67
2022/01/11 09:37:10;;;;;;;50.60;27.17;;;2.40;99.90;;;3.40;100.00;-19842.72;5012265;28;20254;-64
2022/01/11 09:39:42;;;;;;;48.30;26.57;;;2.50;99.90;;;3.43;100.00;-19843.75;5012054;28;20342;-64
2022/01/11 09:42:11;;;;;;;44.60;26.80;;;2.50;99.90;;;3.22;100.00;-19836.41;5011730;28;20242;-63
2022/01/11 09:44:39;;;;;;;49.97;26.67;;;2.40;99.90;;;3.21;100.00;-19836.25;5011870;28;20233;-63
2022/01/11 09:47:11;;;;;;;48.07;27.57;;;2.40;99.90;;;3.55;100.00;-19847.69;5011301;28;20249;-63
2022/01/11 09:49:40;;;;;;;57.83;29.67;;;2.40;99.90;;;3.38;100.00;-19842.06;5012284;28;20689;-63
2022/01/11 09:52:10;;;;;;;51.80;27.03;;;2.50;99.90;;;3.48;100.00;-19845.47;5012062;28;20260;-64
2022/01/11 09:54:46;;;;;;;49.70;28.17;;;2.50;99.90;;;3.34;100.00;-19840.50;5012006;28;20296;-63
2022/01/11 09:57:15;;;;;;;54.87;30.43;;;2.50;99.90;;;3.61;100.00;-19849.75;5011317;28;20237;-65
2022/01/11 09:59:43;;;;;;;45.53;26.10;;;2.50;99.90;;;3.47;100.00;-19844.97;5012024;28;20269;-65
2022/01/11 10:02:13;;;;;;;54.80;29.93;;;2.60;99.90;;;3.64;100.00;-19850.94;5012321;28;20668;-65
2022/01/11 10:04:44;;;;;;;54.70;28.90;;;2.60;99.90;;;3.54;100.00;-19847.53;5009046;28;20282;-65
2022/01/11 10:07:14;;;;;;;49.87;28.20;;;2.60;99.90;;;3.47;100.00;-19845.13;4992151;28;20234;-64
2022/01/11 10:09:52;;;;;;;56.93;30.57;;;2.70;99.90;;;3.50;100.00;-19846.16;5002415;28;20237;-64
2022/01/11 10:12:22;;;;;;;55.50;29.47;;;2.70;99.90;;;3.69;100.00;-19852.47;5010605;28;20329;-64
2022/01/11 10:14:53;;;;;;;57.03;31.57;;;2.70;99.90;;;3.67;100.00;-19851.78;5011712;28;20239;-64
2022/01/11 10:17:24;;;;;;;59.53;29.87;;;2.80;99.90;;;3.82;100.00;-19856.94;5011386;28;20238;-64
2022/01/11 10:20:04;;;;;;;54.60;31.17;;;2.80;99.90;;;3.77;100.00;-19855.03;5012181;28;20283;-64